sensor_id;sensor_type;location;lat;lon;timestamp;temperature;humidity
13049;DHT22;6591;51.446;5.404;2024-03-02T00:01:16;11.40;99.90
13049;DHT22;6591;51.446;5.404;2024-03-02T00:03:43;13.40;99.90
13049;DHT22;6591;51.446;5.404;2024-03-02T00:06:11;12.40;99.90
13049;DHT22;6591;51.446;5.404;2024-03-02T00:08:39;11.60;99.90
13049;DHT22;6591;51.446;5.404;2024-03-02T00:11:07;11.40;99.90
13049;DHT22;6591;51.446;5.404;2024-03-02T00:13:34;11.30;99.90
13049;DHT22;6591;51.446;5.404;2024-03-02T00:16:02;11.20;99.90
13049;DHT22;6591;51.446;5.404;2024-03-02T00:18:36;11.00;99.90
13049;DHT22;6591;51.446;5.404;2024-03-02T00:21:06;13.20;99.90
13049;DHT22;6591;51.446;5.404;2024-03-02T00:23:37;12.70;99.90
13049;DHT22;6591;51.446;5.404;2024-03-02T00:26:05;12.70;99.90
13049;DHT22;6591;51.446;5.404;2024-03-02T00:28:34;12.10;99.90
13049;DHT22;6591;51.446;5.404;2024-03-02T00:31:07;10.20;99.90
13049;DHT22;6591;51.446;5.404;2024-03-02T00:33:38;10.10;99.90
13049;DHT22;6591;51.446;5.404;2024-03-02T00:36:12;10.00;99.90
13049;DHT22;6591;51.446;5.404;2024-03-02T00:38:49;11.70;99.90
13049;DHT22;6591;51.446;5.404;2024-03-02T00:41:31;9.80;99.90
13049;DHT22;6591;51.446;5.404;2024-03-02T00:44:48;9.80;99.90
13049;DHT22;6591;51.446;5.404;2024-03-02T00:47:16;9.70;99.90
13049;DHT22;6591;51.446;5.404;2024-03-02T00:49:43;9.70;99.90
13049;DHT22;6591;51.446;5.404;2024-03-02T00:52:14;11.30;99.90
13049;DHT22;6591;51.446;5.404;2024-03-02T00:54:41;9.90;99.90
13049;DHT22;6591;51.446;5.404;2024-03-02T00:57:10;9.50;99.90
13049;DHT22;6591;51.446;5.404;2024-03-02T00:59:39;9.60;99.90
13049;DHT22;6591;51.446;5.404;2024-03-02T01:02:06;9.50;99.90
13049;DHT22;6591;51.446;5.404;2024-03-02T01:04:33;9.50;99.90
13049;DHT22;6591;51.446;5.404;2024-03-02T01:07:00;9.50;99.90
13049;DHT22;6591;51.446;5.404;2024-03-02T01:09:27;11.30;99.90
13049;DHT22;6591;51.446;5.404;2024-03-02T01:11:55;10.70;99.90
13049;DHT22;6591;51.446;5.404;2024-03-02T01:14:22;9.40;99.90
13049;DHT22;6591;51.446;5.404;2024-03-02T01:16:49;9.40;99.90
13049;DHT22;6591;51.446;5.404;2024-03-02T01:19:16;9.40;99.90
13049;DHT22;6591;51.446;5.404;2024-03-02T01:21:43;9.50;99.90
13049;DHT22;6591;51.446;5.404;2024-03-02T01:24:10;9.40;99.90
13049;DHT22;6591;51.446;5.404;2024-03-02T01:26:37;11.50;99.90
13049;DHT22;6591;51.446;5.404;2024-03-02T01:29:04;9.40;99.90
13049;DHT22;6591;51.446;5.404;2024-03-02T01:31:31;11.20;99.90
13049;DHT22;6591;51.446;5.404;2024-03-02T01:33:58;9.40;99.90
13049;DHT22;6591;51.446;5.404;2024-03-02T01:36:25;11.80;99.90
13049;DHT22;6591;51.446;5.404;2024-03-02T01:38:52;9.40;99.90
13049;DHT22;6591;51.446;5.404;2024-03-02T01:41:19;9.70;99.90
13049;DHT22;6591;51.446;5.404;2024-03-02T01:43:46;9.40;99.90
13049;DHT22;6591;51.446;5.404;2024-03-02T01:46:13;10.30;99.90
13049;DHT22;6591;51.446;5.404;2024-03-02T01:48:40;11.40;99.90
13049;DHT22;6591;51.446;5.404;2024-03-02T01:51:07;11.00;99.90
13049;DHT22;6591;51.446;5.404;2024-03-02T01:53:35;9.60;99.90
13049;DHT22;6591;51.446;5.404;2024-03-02T01:56:02;11.50;99.90
13049;DHT22;6591;51.446;5.404;2024-03-02T01:58:29;9.40;99.90
13049;DHT22;6591;51.446;5.404;2024-03-02T02:00:56;9.40;99.90
13049;DHT22;6591;51.446;5.404;2024-03-02T02:03:24;11.00;99.90
13049;DHT22;6591;51.446;5.404;2024-03-02T02:05:51;11.30;99.90
13049;DHT22;6591;51.446;5.404;2024-03-02T02:08:18;9.40;99.90
13049;DHT22;6591;51.446;5.404;2024-03-02T02:10:45;11.00;99.90
13049;DHT22;6591;51.446;5.404;2024-03-02T02:13:12;9.40;99.90
13049;DHT22;6591;51.446;5.404;2024-03-02T02:15:39;9.40;99.90
13049;DHT22;6591;51.446;5.404;2024-03-02T02:18:06;9.40;99.90
13049;DHT22;6591;51.446;5.404;2024-03-02T02:20:33;11.00;99.90
13049;DHT22;6591;51.446;5.404;2024-03-02T02:23:01;9.40;99.90
13049;DHT22;6591;51.446;5.404;2024-03-02T02:25:31;10.60;99.90
13049;DHT22;6591;51.446;5.404;2024-03-02T02:27:58;11.00;99.90
13049;DHT22;6591;51.446;5.404;2024-03-02T02:30:28;10.80;99.90
13049;DHT22;6591;51.446;5.404;2024-03-02T02:32:57;11.00;99.90
13049;DHT22;6591;51.446;5.404;2024-03-02T02:35:25;11.50;99.90
13049;DHT22;6591;51.446;5.404;2024-03-02T02:37:54;10.40;99.90
13049;DHT22;6591;51.446;5.404;2024-03-02T02:40:22;9.30;99.90
13049;DHT22;6591;51.446;5.404;2024-03-02T02:42:50;9.30;99.90
13049;DHT22;6591;51.446;5.404;2024-03-02T02:45:20;9.30;99.90
13049;DHT22;6591;51.446;5.404;2024-03-02T02:47:48;9.30;99.90
13049;DHT22;6591;51.446;5.404;2024-03-02T02:50:15;9.30;99.90
13049;DHT22;6591;51.446;5.404;2024-03-02T02:52:43;9.30;99.90
13049;DHT22;6591;51.446;5.404;2024-03-02T02:55:11;9.20;99.90
13049;DHT22;6591;51.446;5.404;2024-03-02T02:57:46;9.20;99.90
13049;DHT22;6591;51.446;5.404;2024-03-02T03:00:15;9.20;99.90
13049;DHT22;6591;51.446;5.404;2024-03-02T03:02:48;9.20;99.90
13049;DHT22;6591;51.446;5.404;2024-03-02T03:05:18;9.20;99.90
13049;DHT22;6591;51.446;5.404;2024-03-02T03:07:45;9.20;99.90
13049;DHT22;6591;51.446;5.404;2024-03-02T03:10:15;9.30;99.90
13049;DHT22;6591;51.446;5.404;2024-03-02T03:12:42;9.20;99.90
13049;DHT22;6591;51.446;5.404;2024-03-02T03:15:11;9.20;99.90
13049;DHT22;6591;51.446;5.404;2024-03-02T03:17:39;9.50;99.90
13049;DHT22;6591;51.446;5.404;2024-03-02T03:20:07;9.20;99.90
13049;DHT22;6591;51.446;5.404;2024-03-02T03:22:38;9.20;99.90
13049;DHT22;6591;51.446;5.404;2024-03-02T03:25:06;9.20;99.90
13049;DHT22;6591;51.446;5.404;2024-03-02T03:27:36;9.20;99.90
13049;DHT22;6591;51.446;5.404;2024-03-02T03:30:04;10.80;99.90
13049;DHT22;6591;51.446;5.404;2024-03-02T03:32:33;9.20;99.90
13049;DHT22;6591;51.446;5.404;2024-03-02T03:35:00;9.20;99.90
13049;DHT22;6591;51.446;5.404;2024-03-02T03:37:27;9.20;99.90
13049;DHT22;6591;51.446;5.404;2024-03-02T03:40:03;10.40;99.90
13049;DHT22;6591;51.446;5.404;2024-03-02T03:42:33;9.20;99.90
13049;DHT22;6591;51.446;5.404;2024-03-02T03:45:00;9.20;99.90
13049;DHT22;6591;51.446;5.404;2024-03-02T03:47:27;9.20;99.90
13049;DHT22;6591;51.446;5.404;2024-03-02T03:49:54;9.20;99.90
13049;DHT22;6591;51.446;5.404;2024-03-02T03:52:21;10.50;99.90
13049;DHT22;6591;51.446;5.404;2024-03-02T03:54:48;9.20;99.90
13049;DHT22;6591;51.446;5.404;2024-03-02T03:57:16;7.90;99.90
13049;DHT22;6591;51.446;5.404;2024-03-02T03:59:44;10.00;99.90
13049;DHT22;6591;51.446;5.404;2024-03-02T04:02:11;11.20;99.90
13049;DHT22;6591;51.446;5.404;2024-03-02T04:04:39;9.30;99.90
13049;DHT22;6591;51.446;5.404;2024-03-02T04:07:06;9.30;99.90
13049;DHT22;6591;51.446;5.404;2024-03-02T04:09:33;9.30;99.90
13049;DHT22;6591;51.446;5.404;2024-03-02T04:12:00;9.30;99.90
13049;DHT22;6591;51.446;5.404;2024-03-02T04:14:27;9.40;99.90
13049;DHT22;6591;51.446;5.404;2024-03-02T04:16:54;9.20;99.90
13049;DHT22;6591;51.446;5.404;2024-03-02T04:19:22;9.80;99.90
13049;DHT22;6591;51.446;5.404;2024-03-02T04:21:49;9.20;99.90
13049;DHT22;6591;51.446;5.404;2024-03-02T04:24:16;11.30;99.90
13049;DHT22;6591;51.446;5.404;2024-03-02T04:26:43;9.00;99.90
13049;DHT22;6591;51.446;5.404;2024-03-02T04:29:10;9.50;99.90
13049;DHT22;6591;51.446;5.404;2024-03-02T04:31:37;8.90;99.90
13049;DHT22;6591;51.446;5.404;2024-03-02T04:34:04;8.90;99.90
13049;DHT22;6591;51.446;5.404;2024-03-02T04:36:32;8.90;99.90
13049;DHT22;6591;51.446;5.404;2024-03-02T04:38:59;10.00;99.90
13049;DHT22;6591;51.446;5.404;2024-03-02T04:41:26;11.20;99.90
13049;DHT22;6591;51.446;5.404;2024-03-02T04:43:52;9.20;99.90
13049;DHT22;6591;51.446;5.404;2024-03-02T04:46:20;9.70;99.90
13049;DHT22;6591;51.446;5.404;2024-03-02T04:48:47;9.00;99.90
13049;DHT22;6591;51.446;5.404;2024-03-02T04:51:15;9.00;99.90
13049;DHT22;6591;51.446;5.404;2024-03-02T04:53:42;9.20;99.90
13049;DHT22;6591;51.446;5.404;2024-03-02T04:56:09;9.10;99.90
13049;DHT22;6591;51.446;5.404;2024-03-02T04:59:06;9.10;99.90
13049;DHT22;6591;51.446;5.404;2024-03-02T05:01:33;9.30;99.90
13049;DHT22;6591;51.446;5.404;2024-03-02T05:04:00;9.20;99.90
13049;DHT22;6591;51.446;5.404;2024-03-02T05:06:27;9.10;99.90
13049;DHT22;6591;51.446;5.404;2024-03-02T05:08:54;11.00;99.90
13049;DHT22;6591;51.446;5.404;2024-03-02T05:11:21;9.20;99.90
13049;DHT22;6591;51.446;5.404;2024-03-02T05:14:04;9.20;99.90
13049;DHT22;6591;51.446;5.404;2024-03-02T05:16:35;9.20;99.90
13049;DHT22;6591;51.446;5.404;2024-03-02T05:19:05;9.80;99.90
13049;DHT22;6591;51.446;5.404;2024-03-02T05:21:35;9.10;99.90
13049;DHT22;6591;51.446;5.404;2024-03-02T05:24:02;9.40;99.90
13049;DHT22;6591;51.446;5.404;2024-03-02T05:26:29;9.10;99.90
13049;DHT22;6591;51.446;5.404;2024-03-02T05:28:56;9.10;99.90
13049;DHT22;6591;51.446;5.404;2024-03-02T05:31:23;10.30;99.90
13049;DHT22;6591;51.446;5.404;2024-03-02T05:33:50;9.00;99.90
13049;DHT22;6591;51.446;5.404;2024-03-02T05:36:22;9.30;99.90
13049;DHT22;6591;51.446;5.404;2024-03-02T05:38:49;9.10;99.90
13049;DHT22;6591;51.446;5.404;2024-03-02T05:41:16;10.40;99.90
13049;DHT22;6591;51.446;5.404;2024-03-02T05:43:43;9.10;99.90
13049;DHT22;6591;51.446;5.404;2024-03-02T05:46:10;9.10;99.90
13049;DHT22;6591;51.446;5.404;2024-03-02T05:48:38;9.10;99.90
13049;DHT22;6591;51.446;5.404;2024-03-02T05:51:05;9.30;99.90
13049;DHT22;6591;51.446;5.404;2024-03-02T05:53:32;9.10;99.90
13049;DHT22;6591;51.446;5.404;2024-03-02T05:56:00;11.10;99.90
13049;DHT22;6591;51.446;5.404;2024-03-02T05:58:31;9.10;99.90
13049;DHT22;6591;51.446;5.404;2024-03-02T06:01:17;10.70;99.90
13049;DHT22;6591;51.446;5.404;2024-03-02T06:03:45;9.00;99.90
13049;DHT22;6591;51.446;5.404;2024-03-02T06:06:12;9.80;99.90
13049;DHT22;6591;51.446;5.404;2024-03-02T06:08:39;8.90;99.90
13049;DHT22;6591;51.446;5.404;2024-03-02T06:11:06;8.90;99.90
13049;DHT22;6591;51.446;5.404;2024-03-02T06:13:33;10.20;99.90
13049;DHT22;6591;51.446;5.404;2024-03-02T06:16:00;10.00;99.90
13049;DHT22;6591;51.446;5.404;2024-03-02T06:18:27;8.80;99.90
13049;DHT22;6591;51.446;5.404;2024-03-02T06:20:54;10.20;99.90
13049;DHT22;6591;51.446;5.404;2024-03-02T06:23:21;10.30;99.90
13049;DHT22;6591;51.446;5.404;2024-03-02T06:25:48;8.70;99.90
13049;DHT22;6591;51.446;5.404;2024-03-02T06:28:15;8.60;99.90
13049;DHT22;6591;51.446;5.404;2024-03-02T06:30:42;8.50;99.90
13049;DHT22;6591;51.446;5.404;2024-03-02T06:33:10;8.50;99.90
13049;DHT22;6591;51.446;5.404;2024-03-02T06:35:37;8.40;99.90
13049;DHT22;6591;51.446;5.404;2024-03-02T06:38:05;8.30;99.90
13049;DHT22;6591;51.446;5.404;2024-03-02T06:40:32;11.00;99.90
13049;DHT22;6591;51.446;5.404;2024-03-02T06:43:00;10.10;99.90
13049;DHT22;6591;51.446;5.404;2024-03-02T06:45:27;8.20;99.90
13049;DHT22;6591;51.446;5.404;2024-03-02T06:47:57;9.80;99.90
13049;DHT22;6591;51.446;5.404;2024-03-02T06:50:24;8.10;99.90
13049;DHT22;6591;51.446;5.404;2024-03-02T06:52:51;8.50;99.90
13049;DHT22;6591;51.446;5.404;2024-03-02T06:55:18;8.10;99.90
13049;DHT22;6591;51.446;5.404;2024-03-02T06:57:45;9.50;99.90
13049;DHT22;6591;51.446;5.404;2024-03-02T07:00:13;9.40;99.90
13049;DHT22;6591;51.446;5.404;2024-03-02T07:02:40;8.00;99.90
13049;DHT22;6591;51.446;5.404;2024-03-02T07:05:08;8.00;99.90
13049;DHT22;6591;51.446;5.404;2024-03-02T07:07:35;8.00;99.90
13049;DHT22;6591;51.446;5.404;2024-03-02T07:10:04;8.10;99.90
13049;DHT22;6591;51.446;5.404;2024-03-02T07:12:31;8.10;99.90
13049;DHT22;6591;51.446;5.404;2024-03-02T07:14:59;8.90;99.90
13049;DHT22;6591;51.446;5.404;2024-03-02T07:17:32;10.00;99.90
13049;DHT22;6591;51.446;5.404;2024-03-02T07:19:59;8.10;99.90
13049;DHT22;6591;51.446;5.404;2024-03-02T07:22:26;9.70;99.90
13049;DHT22;6591;51.446;5.404;2024-03-02T07:24:53;8.10;99.90
13049;DHT22;6591;51.446;5.404;2024-03-02T07:27:20;8.20;99.90
13049;DHT22;6591;51.446;5.404;2024-03-02T07:29:48;8.20;99.90
13049;DHT22;6591;51.446;5.404;2024-03-02T07:32:15;8.20;99.90
13049;DHT22;6591;51.446;5.404;2024-03-02T07:34:42;9.50;99.90
13049;DHT22;6591;51.446;5.404;2024-03-02T07:37:09;8.20;99.90
13049;DHT22;6591;51.446;5.404;2024-03-02T07:39:37;8.20;99.90
13049;DHT22;6591;51.446;5.404;2024-03-02T07:42:04;8.10;99.90
13049;DHT22;6591;51.446;5.404;2024-03-02T07:44:33;8.20;99.90
13049;DHT22;6591;51.446;5.404;2024-03-02T07:47:00;8.20;99.90
13049;DHT22;6591;51.446;5.404;2024-03-02T07:49:27;8.40;99.90
13049;DHT22;6591;51.446;5.404;2024-03-02T07:51:54;10.50;99.90
13049;DHT22;6591;51.446;5.404;2024-03-02T07:54:22;8.10;99.90
13049;DHT22;6591;51.446;5.404;2024-03-02T07:56:49;8.20;99.90
13049;DHT22;6591;51.446;5.404;2024-03-02T07:59:16;8.10;99.90
13049;DHT22;6591;51.446;5.404;2024-03-02T08:01:43;8.20;99.90
13049;DHT22;6591;51.446;5.404;2024-03-02T08:04:10;8.30;99.90
13049;DHT22;6591;51.446;5.404;2024-03-02T08:06:38;8.50;99.90
13049;DHT22;6591;51.446;5.404;2024-03-02T08:09:05;9.70;99.90
13049;DHT22;6591;51.446;5.404;2024-03-02T08:11:36;8.50;99.90
13049;DHT22;6591;51.446;5.404;2024-03-02T08:14:06;10.10;99.90
13049;DHT22;6591;51.446;5.404;2024-03-02T08:16:33;10.60;99.90
13049;DHT22;6591;51.446;5.404;2024-03-02T08:19:01;8.60;99.90
13049;DHT22;6591;51.446;5.404;2024-03-02T08:21:28;10.10;99.90
13049;DHT22;6591;51.446;5.404;2024-03-02T08:23:57;10.80;99.90
13049;DHT22;6591;51.446;5.404;2024-03-02T08:26:27;9.20;99.90
13049;DHT22;6591;51.446;5.404;2024-03-02T08:28:59;9.40;99.90
13049;DHT22;6591;51.446;5.404;2024-03-02T08:31:28;11.00;99.90
13049;DHT22;6591;51.446;5.404;2024-03-02T08:33:55;10.60;99.90
13049;DHT22;6591;51.446;5.404;2024-03-02T08:36:23;10.30;99.90
13049;DHT22;6591;51.446;5.404;2024-03-02T08:38:50;12.30;99.90
13049;DHT22;6591;51.446;5.404;2024-03-02T08:41:18;12.40;99.90
13049;DHT22;6591;51.446;5.404;2024-03-02T08:43:45;11.60;99.90
13049;DHT22;6591;51.446;5.404;2024-03-02T08:46:12;12.50;99.90
13049;DHT22;6591;51.446;5.404;2024-03-02T08:48:39;11.10;99.90
13049;DHT22;6591;51.446;5.404;2024-03-02T08:51:06;11.30;99.90
13049;DHT22;6591;51.446;5.404;2024-03-02T08:53:35;13.20;99.90
13049;DHT22;6591;51.446;5.404;2024-03-02T08:56:02;11.60;99.90
13049;DHT22;6591;51.446;5.404;2024-03-02T08:58:32;11.80;99.90
13049;DHT22;6591;51.446;5.404;2024-03-02T09:00:59;13.60;99.90
13049;DHT22;6591;51.446;5.404;2024-03-02T09:03:26;12.40;99.90
13049;DHT22;6591;51.446;5.404;2024-03-02T09:05:53;13.80;99.90
13049;DHT22;6591;51.446;5.404;2024-03-02T09:08:20;12.20;99.90
13049;DHT22;6591;51.446;5.404;2024-03-02T09:10:47;14.90;99.90
13049;DHT22;6591;51.446;5.404;2024-03-02T09:13:14;12.70;99.90
13049;DHT22;6591;51.446;5.404;2024-03-02T09:15:42;12.40;99.90
13049;DHT22;6591;51.446;5.404;2024-03-02T09:18:09;12.50;99.90
13049;DHT22;6591;51.446;5.404;2024-03-02T09:20:36;12.90;99.90
13049;DHT22;6591;51.446;5.404;2024-03-02T09:23:04;12.60;99.90
13049;DHT22;6591;51.446;5.404;2024-03-02T09:25:31;13.30;99.90
13049;DHT22;6591;51.446;5.404;2024-03-02T09:27:58;12.80;99.90
13049;DHT22;6591;51.446;5.404;2024-03-02T09:30:25;14.60;99.90
13049;DHT22;6591;51.446;5.404;2024-03-02T09:32:52;13.00;99.90
13049;DHT22;6591;51.446;5.404;2024-03-02T09:35:39;13.10;99.90
13049;DHT22;6591;51.446;5.404;2024-03-02T09:38:06;13.40;99.90
13049;DHT22;6591;51.446;5.404;2024-03-02T09:40:33;13.30;99.90
13049;DHT22;6591;51.446;5.404;2024-03-02T09:43:00;13.50;99.90
13049;DHT22;6591;51.446;5.404;2024-03-02T09:45:30;14.90;99.90
13049;DHT22;6591;51.446;5.404;2024-03-02T09:47:57;13.70;99.90
13049;DHT22;6591;51.446;5.404;2024-03-02T09:50:24;14.60;99.90
13049;DHT22;6591;51.446;5.404;2024-03-02T09:52:52;14.30;99.90
13049;DHT22;6591;51.446;5.404;2024-03-02T09:55:21;14.00;99.90
13049;DHT22;6591;51.446;5.404;2024-03-02T09:57:48;15.00;99.90
13049;DHT22;6591;51.446;5.404;2024-03-02T10:00:17;14.80;99.90
13049;DHT22;6591;51.446;5.404;2024-03-02T10:02:45;14.10;99.90
13049;DHT22;6591;51.446;5.404;2024-03-02T10:05:25;14.30;99.90
13049;DHT22;6591;51.446;5.404;2024-03-02T10:08:02;14.20;99.90
13049;DHT22;6591;51.446;5.404;2024-03-02T10:10:40;14.10;99.90
13049;DHT22;6591;51.446;5.404;2024-03-02T10:13:11;14.20;99.90
13049;DHT22;6591;51.446;5.404;2024-03-02T10:15:40;15.40;99.90
13049;DHT22;6591;51.446;5.404;2024-03-02T10:18:10;14.20;99.90
13049;DHT22;6591;51.446;5.404;2024-03-02T10:20:39;15.50;99.90
13049;DHT22;6591;51.446;5.404;2024-03-02T10:23:11;14.30;99.90
13049;DHT22;6591;51.446;5.404;2024-03-02T10:25:40;14.40;99.90
13049;DHT22;6591;51.446;5.404;2024-03-02T10:28:20;14.50;99.90
13049;DHT22;6591;51.446;5.404;2024-03-02T10:30:48;16.20;99.90
13049;DHT22;6591;51.446;5.404;2024-03-02T10:33:17;16.40;99.90
13049;DHT22;6591;51.446;5.404;2024-03-02T10:35:49;14.50;99.90
13049;DHT22;6591;51.446;5.404;2024-03-02T10:38:18;14.80;99.90
13049;DHT22;6591;51.446;5.404;2024-03-02T10:40:47;14.90;99.90
13049;DHT22;6591;51.446;5.404;2024-03-02T10:43:15;15.10;99.90
13049;DHT22;6591;51.446;5.404;2024-03-02T10:45:45;16.30;99.90
13049;DHT22;6591;51.446;5.404;2024-03-02T10:48:15;15.40;99.90
13049;DHT22;6591;51.446;5.404;2024-03-02T10:50:43;15.60;99.90
13049;DHT22;6591;51.446;5.404;2024-03-02T10:53:10;15.60;99.90
13049;DHT22;6591;51.446;5.404;2024-03-02T10:55:37;15.70;99.90
13049;DHT22;6591;51.446;5.404;2024-03-02T10:58:05;15.80;99.90
13049;DHT22;6591;51.446;5.404;2024-03-02T11:00:34;15.90;99.90
13049;DHT22;6591;51.446;5.404;2024-03-02T11:03:06;16.20;99.90
13049;DHT22;6591;51.446;5.404;2024-03-02T11:05:40;16.00;99.90
13049;DHT22;6591;51.446;5.404;2024-03-02T11:08:17;16.10;99.90
13049;DHT22;6591;51.446;5.404;2024-03-02T11:10:52;16.40;99.90
13049;DHT22;6591;51.446;5.404;2024-03-02T11:13:30;16.80;99.90
13049;DHT22;6591;51.446;5.404;2024-03-02T11:16:05;16.50;99.90
13049;DHT22;6591;51.446;5.404;2024-03-02T11:18:37;16.60;99.90
13049;DHT22;6591;51.446;5.404;2024-03-02T11:21:06;16.90;99.90
13049;DHT22;6591;51.446;5.404;2024-03-02T11:23:34;16.80;99.90
13049;DHT22;6591;51.446;5.404;2024-03-02T11:26:21;16.90;99.90
13049;DHT22;6591;51.446;5.404;2024-03-02T11:28:53;17.00;99.90
13049;DHT22;6591;51.446;5.404;2024-03-02T11:31:20;17.30;99.90
13049;DHT22;6591;51.446;5.404;2024-03-02T11:33:47;17.10;99.90
13049;DHT22;6591;51.446;5.404;2024-03-02T11:36:15;17.20;99.90
13049;DHT22;6591;51.446;5.404;2024-03-02T11:38:43;17.30;99.90
13049;DHT22;6591;51.446;5.404;2024-03-02T11:41:12;17.30;99.90
13049;DHT22;6591;51.446;5.404;2024-03-02T11:43:42;17.40;99.90
13049;DHT22;6591;51.446;5.404;2024-03-02T11:46:11;17.50;99.90
13049;DHT22;6591;51.446;5.404;2024-03-02T11:48:40;17.60;99.90
13049;DHT22;6591;51.446;5.404;2024-03-02T11:51:07;17.70;99.90
13049;DHT22;6591;51.446;5.404;2024-03-02T11:53:35;17.80;99.90
13049;DHT22;6591;51.446;5.404;2024-03-02T11:56:06;17.90;99.90
13049;DHT22;6591;51.446;5.404;2024-03-02T11:58:36;18.00;99.90
13049;DHT22;6591;51.446;5.404;2024-03-02T12:01:04;18.10;99.90
13049;DHT22;6591;51.446;5.404;2024-03-02T12:03:32;18.20;99.90
13049;DHT22;6591;51.446;5.404;2024-03-02T12:06:02;18.20;99.90
13049;DHT22;6591;51.446;5.404;2024-03-02T12:08:30;18.20;99.90
13049;DHT22;6591;51.446;5.404;2024-03-02T12:11:01;18.10;99.90
13049;DHT22;6591;51.446;5.404;2024-03-02T12:13:30;18.20;99.90
13049;DHT22;6591;51.446;5.404;2024-03-02T12:15:58;18.10;99.90
13049;DHT22;6591;51.446;5.404;2024-03-02T12:18:25;18.70;99.90
13049;DHT22;6591;51.446;5.404;2024-03-02T12:20:53;18.80;99.90
13049;DHT22;6591;51.446;5.404;2024-03-02T12:23:24;18.20;99.90
13049;DHT22;6591;51.446;5.404;2024-03-02T12:25:52;18.20;99.90
13049;DHT22;6591;51.446;5.404;2024-03-02T12:28:20;18.20;99.90
13049;DHT22;6591;51.446;5.404;2024-03-02T12:30:48;18.30;99.90
13049;DHT22;6591;51.446;5.404;2024-03-02T12:33:17;18.30;99.90
13049;DHT22;6591;51.446;5.404;2024-03-02T12:35:44;18.40;99.90
13049;DHT22;6591;51.446;5.404;2024-03-02T12:38:11;19.00;99.90
13049;DHT22;6591;51.446;5.404;2024-03-02T12:40:38;18.70;99.90
13049;DHT22;6591;51.446;5.404;2024-03-02T12:43:06;18.90;99.90
13049;DHT22;6591;51.446;5.404;2024-03-02T12:45:34;19.10;99.90
13049;DHT22;6591;51.446;5.404;2024-03-02T12:48:02;19.30;99.90
13049;DHT22;6591;51.446;5.404;2024-03-02T12:50:33;19.40;99.90
13049;DHT22;6591;51.446;5.404;2024-03-02T12:53:00;19.50;99.90
13049;DHT22;6591;51.446;5.404;2024-03-02T12:55:28;19.60;99.90
13049;DHT22;6591;51.446;5.404;2024-03-02T12:57:56;19.70;99.80
13049;DHT22;6591;51.446;5.404;2024-03-02T13:00:26;19.80;99.50
13049;DHT22;6591;51.446;5.404;2024-03-02T13:02:53;19.90;99.50
13049;DHT22;6591;51.446;5.404;2024-03-02T13:05:20;20.00;99.50
13049;DHT22;6591;51.446;5.404;2024-03-02T13:07:48;20.10;99.40
13049;DHT22;6591;51.446;5.404;2024-03-02T13:10:16;20.20;99.40
13049;DHT22;6591;51.446;5.404;2024-03-02T13:12:45;20.20;99.20
13049;DHT22;6591;51.446;5.404;2024-03-02T13:15:12;20.30;99.00
13049;DHT22;6591;51.446;5.404;2024-03-02T13:17:44;20.30;97.90
13049;DHT22;6591;51.446;5.404;2024-03-02T13:20:16;20.40;98.00
13049;DHT22;6591;51.446;5.404;2024-03-02T13:22:45;20.30;97.70
13049;DHT22;6591;51.446;5.404;2024-03-02T13:25:12;20.40;97.50
13049;DHT22;6591;51.446;5.404;2024-03-02T13:27:39;20.10;97.50
13049;DHT22;6591;51.446;5.404;2024-03-02T13:30:07;20.00;97.40
13049;DHT22;6591;51.446;5.404;2024-03-02T13:32:36;19.90;97.40
13049;DHT22;6591;51.446;5.404;2024-03-02T13:35:04;19.80;97.60
13049;DHT22;6591;51.446;5.404;2024-03-02T13:37:31;19.70;97.60
13049;DHT22;6591;51.446;5.404;2024-03-02T13:39:58;20.30;97.80
13049;DHT22;6591;51.446;5.404;2024-03-02T13:42:26;19.80;97.60
13049;DHT22;6591;51.446;5.404;2024-03-02T13:44:54;19.70;97.60
13049;DHT22;6591;51.446;5.404;2024-03-02T13:47:21;19.70;97.60
13049;DHT22;6591;51.446;5.404;2024-03-02T13:49:48;19.80;97.80
13049;DHT22;6591;51.446;5.404;2024-03-02T13:52:15;19.90;97.50
13049;DHT22;6591;51.446;5.404;2024-03-02T13:54:47;19.90;97.30
13049;DHT22;6591;51.446;5.404;2024-03-02T13:57:14;20.00;97.20
13049;DHT22;6591;51.446;5.404;2024-03-02T13:59:43;20.10;97.20
13049;DHT22;6591;51.446;5.404;2024-03-02T14:02:11;20.00;97.00
13049;DHT22;6591;51.446;5.404;2024-03-02T14:04:39;20.00;96.90
13049;DHT22;6591;51.446;5.404;2024-03-02T14:07:06;19.90;96.80
13049;DHT22;6591;51.446;5.404;2024-03-02T14:09:34;19.80;96.50
13049;DHT22;6591;51.446;5.404;2024-03-02T14:12:02;19.70;96.70
13049;DHT22;6591;51.446;5.404;2024-03-02T14:14:29;19.60;96.70
13049;DHT22;6591;51.446;5.404;2024-03-02T14:16:56;19.50;96.60
13049;DHT22;6591;51.446;5.404;2024-03-02T14:19:27;20.20;96.90
13049;DHT22;6591;51.446;5.404;2024-03-02T14:21:54;19.30;96.70
13049;DHT22;6591;51.446;5.404;2024-03-02T14:24:21;19.50;96.90
13049;DHT22;6591;51.446;5.404;2024-03-02T14:26:53;19.10;97.20
13049;DHT22;6591;51.446;5.404;2024-03-02T14:29:31;19.20;97.30
13049;DHT22;6591;51.446;5.404;2024-03-02T14:32:03;19.40;97.60
13049;DHT22;6591;51.446;5.404;2024-03-02T14:34:31;19.40;97.80
13049;DHT22;6591;51.446;5.404;2024-03-02T14:36:58;19.50;97.50
13049;DHT22;6591;51.446;5.404;2024-03-02T14:39:27;19.60;97.60
13049;DHT22;6591;51.446;5.404;2024-03-02T14:41:54;19.70;97.40
13049;DHT22;6591;51.446;5.404;2024-03-02T14:44:21;19.70;97.20
13049;DHT22;6591;51.446;5.404;2024-03-02T14:46:49;19.80;97.20
13049;DHT22;6591;51.446;5.404;2024-03-02T14:49:16;19.80;97.40
13049;DHT22;6591;51.446;5.404;2024-03-02T14:51:46;19.90;97.60
13049;DHT22;6591;51.446;5.404;2024-03-02T14:54:16;22.00;97.40
13049;DHT22;6591;51.446;5.404;2024-03-02T14:56:43;20.00;96.90
13049;DHT22;6591;51.446;5.404;2024-03-02T14:59:10;20.00;96.50
13049;DHT22;6591;51.446;5.404;2024-03-02T15:01:38;19.90;96.10
13049;DHT22;6591;51.446;5.404;2024-03-02T15:04:05;19.90;96.00
13049;DHT22;6591;51.446;5.404;2024-03-02T15:06:33;19.60;96.00
13049;DHT22;6591;51.446;5.404;2024-03-02T15:09:00;19.50;95.80
13049;DHT22;6591;51.446;5.404;2024-03-02T15:11:28;19.30;95.80
13049;DHT22;6591;51.446;5.404;2024-03-02T15:14:00;19.10;95.80
13049;DHT22;6591;51.446;5.404;2024-03-02T15:16:32;19.00;95.90
13049;DHT22;6591;51.446;5.404;2024-03-02T15:18:59;18.80;95.90
13049;DHT22;6591;51.446;5.404;2024-03-02T15:21:26;18.70;96.10
13049;DHT22;6591;51.446;5.404;2024-03-02T15:23:53;18.50;96.20
13049;DHT22;6591;51.446;5.404;2024-03-02T15:26:20;18.40;96.40
13049;DHT22;6591;51.446;5.404;2024-03-02T15:28:47;18.30;96.70
13049;DHT22;6591;51.446;5.404;2024-03-02T15:31:14;18.30;96.80
13049;DHT22;6591;51.446;5.404;2024-03-02T15:33:42;18.20;97.00
13049;DHT22;6591;51.446;5.404;2024-03-02T15:36:09;18.50;97.20
13049;DHT22;6591;51.446;5.404;2024-03-02T15:38:36;18.30;97.10
13049;DHT22;6591;51.446;5.404;2024-03-02T15:41:08;18.30;96.80
13049;DHT22;6591;51.446;5.404;2024-03-02T15:43:35;18.30;96.90
13049;DHT22;6591;51.446;5.404;2024-03-02T15:46:06;18.20;97.00
13049;DHT22;6591;51.446;5.404;2024-03-02T15:48:33;18.20;97.10
13049;DHT22;6591;51.446;5.404;2024-03-02T15:51:00;18.30;97.30
13049;DHT22;6591;51.446;5.404;2024-03-02T15:53:32;18.30;97.20
13049;DHT22;6591;51.446;5.404;2024-03-02T15:56:00;18.40;96.90
13049;DHT22;6591;51.446;5.404;2024-03-02T15:58:27;18.30;96.80
13049;DHT22;6591;51.446;5.404;2024-03-02T16:00:54;18.30;96.80